createdAt,value
2023-03-26T00:00:09.062Z,579
2023-03-26T00:01:10.974Z,579
2023-03-26T00:02:13.664Z,578.9
2023-03-26T00:03:15.625Z,579.3
2023-03-26T00:04:17.455Z,579.5
2023-03-26T00:05:19.444Z,579.4
2023-03-26T00:06:21.468Z,579.7
2023-03-26T00:07:23.317Z,579.9
2023-03-26T00:08:25.161Z,580.1
2023-03-26T00:09:27.013Z,580.2
2023-03-26T00:10:28.857Z,579.9
2023-03-26T00:11:30.643Z,579.4
2023-03-26T00:12:32.470Z,579.2
2023-03-26T00:13:34.311Z,579.3
2023-03-26T00:14:36.182Z,578.7
2023-03-26T00:15:38.016Z,578.5
2023-03-26T00:16:40.140Z,579
2023-03-26T00:17:42.353Z,579.1
2023-03-26T00:18:44.491Z,579.3
2023-03-26T00:19:46.526Z,579.2
2023-03-26T00:20:48.386Z,579.1
2023-03-26T00:21:50.341Z,579.5
2023-03-26T00:22:52.117Z,579.7
2023-03-26T00:23:54.027Z,579.8
2023-03-26T00:24:55.984Z,580.3
2023-03-26T00:25:57.842Z,580.2
2023-03-26T00:26:59.754Z,580.8
2023-03-26T00:28:01.645Z,581.5
2023-03-26T00:29:03.988Z,581.3
2023-03-26T00:30:05.967Z,581.6
2023-03-26T00:31:08.053Z,581.8
2023-03-26T00:32:09.873Z,582
2023-03-26T00:33:12.177Z,582.3
2023-03-26T00:34:14.018Z,582.3
2023-03-26T00:35:15.767Z,582.5
2023-03-26T00:36:17.639Z,582.7
2023-03-26T00:37:19.519Z,582.6
2023-03-26T00:38:21.471Z,583
2023-03-26T00:39:23.330Z,583.2
2023-03-26T00:40:25.276Z,583.1
2023-03-26T00:41:27.516Z,582.6
2023-03-26T00:42:29.383Z,582.7
2023-03-26T00:43:31.237Z,583.2
2023-03-26T00:44:33.087Z,583.1
2023-03-26T00:45:35.032Z,583.7
2023-03-26T00:46:37.258Z,583.7
2023-03-26T00:47:39.267Z,583.7
2023-03-26T00:48:46.652Z,583.8
2023-03-26T00:49:48.401Z,583.6
2023-03-26T00:50:50.247Z,583.7
2023-03-26T00:51:52.081Z,583.8
2023-03-26T00:52:53.927Z,584.1
2023-03-26T00:53:55.789Z,583.9
2023-03-26T00:54:57.745Z,583.5
2023-03-26T00:55:59.490Z,583.6
2023-03-26T00:57:01.467Z,584.1
2023-03-26T00:58:03.490Z,583.9
2023-03-26T00:59:05.347Z,584.1
2023-03-26T01:00:07.289Z,583.9
2023-03-26T01:01:09.490Z,584.1
2023-03-26T01:02:11.654Z,584.1
2023-03-26T01:03:28.996Z,584.2
2023-03-26T01:04:33.133Z,584.4
2023-03-26T01:05:35.176Z,584.7
2023-03-26T01:06:37.554Z,584.6
2023-03-26T01:07:39.396Z,584.6
2023-03-26T01:08:41.172Z,584.6
2023-03-26T01:09:43.002Z,584.7
2023-03-26T01:10:45.042Z,584.7
2023-03-26T01:11:47.006Z,584.4
2023-03-26T01:12:48.853Z,584.6
2023-03-26T01:13:50.704Z,584.6
2023-03-26T01:14:52.752Z,584.4
2023-03-26T01:15:55.412Z,584
2023-03-26T01:16:57.328Z,584
2023-03-26T01:17:59.546Z,583.8
2023-03-26T01:19:01.583Z,583.9
2023-03-26T01:20:03.674Z,583.6
2023-03-26T01:21:05.676Z,583.5
2023-03-26T01:22:07.646Z,582.9
2023-03-26T01:23:09.492Z,583.1
2023-03-26T01:24:11.261Z,583.4
2023-03-26T01:25:13.199Z,583
2023-03-26T01:26:15.042Z,582.8
2023-03-26T01:27:17.000Z,582.9
2023-03-26T01:28:18.842Z,583
2023-03-26T01:29:20.595Z,582.7
2023-03-26T01:30:22.540Z,582.8
2023-03-26T01:31:24.393Z,582.9
2023-03-26T01:32:26.742Z,583
2023-03-26T01:33:29.286Z,582.6
2023-03-26T01:34:31.177Z,582.2
2023-03-26T01:35:33.402Z,582.5
2023-03-26T01:36:35.288Z,582.8
2023-03-26T01:37:37.143Z,582.1
2023-03-26T01:38:38.999Z,582.1
2023-03-26T01:39:40.833Z,581.9
2023-03-26T01:40:43.267Z,582.6
2023-03-26T01:41:45.167Z,582.1
2023-03-26T01:42:47.005Z,582
2023-03-26T01:43:48.959Z,582.1
2023-03-26T01:44:50.902Z,582.2
2023-03-26T01:45:53.901Z,582
2023-03-26T01:46:55.975Z,581.6
2023-03-26T01:47:58.126Z,581.4
2023-03-26T01:49:00.154Z,581.6
2023-03-26T01:50:02.090Z,581.7
2023-03-26T01:51:03.987Z,581.2
2023-03-26T01:52:05.812Z,581
2023-03-26T01:53:07.754Z,580.4
2023-03-26T01:54:09.574Z,580.4
2023-03-26T01:55:11.457Z,580.3
2023-03-26T01:56:13.413Z,580
2023-03-26T01:57:15.461Z,580.3
2023-03-26T01:58:17.311Z,580
2023-03-26T01:59:19.161Z,580.1
2023-03-26T02:00:21.121Z,579.6
2023-03-26T02:01:23.229Z,579.4
2023-03-26T02:02:25.728Z,579.8
2023-03-26T02:03:27.917Z,579.8
2023-03-26T02:04:29.842Z,580
2023-03-26T02:05:31.691Z,579.9
2023-03-26T02:06:33.780Z,580
2023-03-26T02:07:35.689Z,579.6
2023-03-26T02:08:37.586Z,579.8
2023-03-26T02:09:39.509Z,580
2023-03-26T02:10:41.353Z,579.6
2023-03-26T02:11:43.319Z,579.6
2023-03-26T02:12:45.154Z,579.2
2023-03-26T02:13:47.015Z,579.5
2023-03-26T02:14:48.955Z,579.4
2023-03-26T02:15:50.922Z,579.3
2023-03-26T02:16:52.760Z,579.4
2023-03-26T02:17:55.129Z,578.8
2023-03-26T02:18:57.096Z,579
2023-03-26T02:19:59.031Z,578.5
2023-03-26T02:21:00.883Z,578.7
2023-03-26T02:22:02.766Z,578.7
2023-03-26T02:23:04.580Z,578.8
2023-03-26T02:24:06.333Z,579
2023-03-26T02:25:08.278Z,578.7
2023-03-26T02:26:10.133Z,579.5
2023-03-26T02:27:11.979Z,579.5
2023-03-26T02:28:13.825Z,579.6
2023-03-26T02:29:15.779Z,579.9
2023-03-26T02:30:17.578Z,580.2
2023-03-26T02:31:19.605Z,580.7
2023-03-26T02:32:21.447Z,580.5
2023-03-26T02:33:23.385Z,580.5
2023-03-26T02:34:25.230Z,580.7
2023-03-26T02:35:27.526Z,580.2
2023-03-26T02:36:29.926Z,580.4
2023-03-26T02:37:31.932Z,580.6
2023-03-26T02:38:34.121Z,580.6
2023-03-26T02:39:36.016Z,580.3
2023-03-26T02:40:37.868Z,580.5
2023-03-26T02:41:39.726Z,580.5
2023-03-26T02:42:41.667Z,580.6
2023-03-26T02:43:43.518Z,580.2
2023-03-26T02:44:45.479Z,579.9
2023-03-26T02:45:47.539Z,580
2023-03-26T02:46:49.521Z,580.1
2023-03-26T02:47:51.443Z,580
2023-03-26T02:48:53.391Z,579.8
2023-03-26T02:49:55.229Z,580.3
2023-03-26T02:50:57.090Z,580.1
2023-03-26T02:51:58.933Z,580.1
2023-03-26T02:53:00.818Z,579.7
2023-03-26T02:54:02.641Z,579.7
2023-03-26T02:55:04.568Z,579.6
2023-03-26T02:56:06.443Z,579.1
2023-03-26T02:57:08.416Z,579.6
2023-03-26T02:58:10.448Z,579
2023-03-26T02:59:12.404Z,579.4
2023-03-26T03:00:14.268Z,579.4
2023-03-26T03:01:16.215Z,579.2
2023-03-26T03:02:18.230Z,579.1
2023-03-26T03:03:20.445Z,578.7
2023-03-26T03:04:22.269Z,578.7
2023-03-26T03:05:24.217Z,578.6
2023-03-26T03:06:26.062Z,578.6
2023-03-26T03:07:27.916Z,578.5
2023-03-26T03:08:29.897Z,578.1
2023-03-26T03:09:31.713Z,578.2
2023-03-26T03:10:33.549Z,578.1
2023-03-26T03:11:35.532Z,578.2
2023-03-26T03:12:37.369Z,578
2023-03-26T03:13:39.358Z,578
2023-03-26T03:14:41.183Z,578.2
2023-03-26T03:15:43.135Z,578
2023-03-26T03:16:45.191Z,577.4
2023-03-26T03:17:47.254Z,577.5
2023-03-26T03:18:49.089Z,577.4
2023-03-26T03:19:50.934Z,577.4
2023-03-26T03:20:52.890Z,577.2
2023-03-26T03:21:54.736Z,577.2
2023-03-26T03:22:56.592Z,576.9
2023-03-26T03:24:01.255Z,576.6
2023-03-26T03:25:03.062Z,576.8
2023-03-26T03:26:05.011Z,576.2
2023-03-26T03:27:06.764Z,576
2023-03-26T03:28:08.612Z,576.3
2023-03-26T03:29:10.453Z,576.4
2023-03-26T03:30:12.311Z,576
2023-03-26T03:31:14.371Z,575.9
2023-03-26T03:32:16.212Z,576
2023-03-26T03:33:17.984Z,575.7
2023-03-26T03:34:19.820Z,575.7
2023-03-26T03:35:21.680Z,575.3
2023-03-26T03:36:23.614Z,575.1
2023-03-26T03:37:25.468Z,575.2
2023-03-26T03:38:27.312Z,575.1
2023-03-26T03:39:29.192Z,574.8
2023-03-26T03:40:31.130Z,575.3
2023-03-26T03:41:33.027Z,575.4
2023-03-26T03:42:34.822Z,575.7
2023-03-26T03:43:36.663Z,575.7
2023-03-26T03:44:38.456Z,575.9
2023-03-26T03:45:40.265Z,576.5
2023-03-26T03:46:42.355Z,576.7
2023-03-26T03:47:44.406Z,576.5
2023-03-26T03:48:46.222Z,576.8
2023-03-26T03:49:47.982Z,576.7
2023-03-26T03:50:49.826Z,576.6
2023-03-26T03:51:51.610Z,576.5
2023-03-26T03:52:53.386Z,576.5
2023-03-26T03:53:55.386Z,576.5
2023-03-26T03:54:57.358Z,576.4
2023-03-26T03:55:59.395Z,576.5
2023-03-26T03:57:01.243Z,576
2023-03-26T03:58:02.946Z,575.9
2023-03-26T03:59:04.786Z,576.2
2023-03-26T04:00:07.615Z,575.5
2023-03-26T04:01:09.447Z,575.6
2023-03-26T04:02:11.595Z,575.3
2023-03-26T04:03:13.861Z,575.6
2023-03-26T04:04:16.041Z,574.9
2023-03-26T04:05:17.839Z,574.6
2023-03-26T04:06:19.826Z,573.8
2023-03-26T04:07:21.887Z,574
2023-03-26T04:08:24.139Z,573.8
2023-03-26T04:09:25.935Z,574.2
2023-03-26T04:10:27.876Z,573.4
2023-03-26T04:11:29.683Z,573.5
2023-03-26T04:12:31.642Z,573.9
2023-03-26T04:13:33.586Z,573.5
2023-03-26T04:14:35.450Z,573.5
2023-03-26T04:15:37.315Z,573
2023-03-26T04:16:39.145Z,573
2023-03-26T04:17:41.142Z,573
2023-03-26T04:18:43.248Z,572.7
2023-03-26T04:19:45.101Z,572.4
2023-03-26T04:20:47.390Z,572.5
2023-03-26T04:21:49.216Z,571.8
2023-03-26T04:22:51.071Z,571.7
2023-03-26T04:23:53.009Z,570.8
2023-03-26T04:24:55.167Z,570.8
2023-03-26T04:25:57.746Z,570.4
2023-03-26T04:26:59.694Z,569.8
2023-03-26T04:28:01.641Z,569.7
2023-03-26T04:29:03.490Z,569.7
2023-03-26T04:30:05.390Z,569.4
2023-03-26T04:31:07.329Z,569.6
2023-03-26T04:32:09.148Z,569.8
2023-03-26T04:33:10.918Z,569.1
2023-03-26T04:34:12.742Z,569.3
2023-03-26T04:35:14.602Z,568.9
2023-03-26T04:36:16.468Z,568.7
2023-03-26T04:37:18.291Z,568.5
2023-03-26T04:38:20.144Z,568.5
2023-03-26T04:39:21.989Z,568.4
2023-03-26T04:40:23.782Z,568.3
2023-03-26T04:41:25.715Z,568.4
2023-03-26T04:42:27.643Z,568.2
2023-03-26T04:43:29.499Z,568.1
2023-03-26T04:44:31.273Z,567.9
2023-03-26T04:45:33.102Z,567.8
2023-03-26T04:46:35.127Z,567.3
2023-03-26T04:47:37.567Z,567.2
2023-03-26T04:48:39.565Z,567.4
2023-03-26T04:49:41.420Z,567.1
2023-03-26T04:50:43.368Z,567
2023-03-26T04:51:45.323Z,567.2
2023-03-26T04:52:47.170Z,567.1
2023-03-26T04:53:49.044Z,567
2023-03-26T04:54:50.980Z,566.9
2023-03-26T04:55:53.957Z,567.3
2023-03-26T04:56:56.285Z,567.3
2023-03-26T04:57:58.158Z,567.3
2023-03-26T04:58:59.912Z,567.2
2023-03-26T05:00:01.869Z,567
2023-03-26T05:01:11.512Z,566.9
2023-03-26T05:02:13.248Z,566.8
2023-03-26T05:03:15.104Z,566.8
2023-03-26T05:04:17.397Z,567.1
2023-03-26T05:05:19.408Z,567.3
2023-03-26T05:06:21.261Z,566.8
2023-03-26T05:07:23.102Z,567.3
2023-03-26T05:08:24.960Z,567
2023-03-26T05:09:26.912Z,567
2023-03-26T05:10:28.869Z,566.9
2023-03-26T05:11:30.808Z,567.2
2023-03-26T05:12:32.690Z,567
2023-03-26T05:13:34.508Z,566.6
2023-03-26T05:14:36.468Z,566.9
2023-03-26T05:15:38.252Z,566.6
2023-03-26T05:16:40.403Z,565.8
2023-03-26T05:17:42.797Z,566.2
2023-03-26T05:18:44.611Z,566.1
2023-03-26T05:19:46.432Z,565.8
2023-03-26T05:20:48.185Z,566.1
2023-03-26T05:21:50.128Z,566.3
2023-03-26T05:22:52.000Z,566
2023-03-26T05:23:53.833Z,565.9
2023-03-26T05:24:55.678Z,566.3
2023-03-26T05:25:57.526Z,566.7
2023-03-26T05:26:59.482Z,566.5
2023-03-26T05:28:01.362Z,566.1
2023-03-26T05:29:03.189Z,566.1
2023-03-26T05:30:05.384Z,565.7
2023-03-26T05:31:07.306Z,566
2023-03-26T05:32:09.141Z,565.9
2023-03-26T05:33:11.491Z,565.3
2023-03-26T05:34:13.349Z,565.6
2023-03-26T05:35:15.219Z,565.2
2023-03-26T05:36:17.064Z,564.9
2023-03-26T05:37:18.831Z,565.7
2023-03-26T05:38:20.749Z,565.7
2023-03-26T05:39:22.585Z,565.4
2023-03-26T05:40:24.364Z,565.4
2023-03-26T05:41:26.212Z,565.8
2023-03-26T05:42:28.056Z,565.3
2023-03-26T05:43:30.149Z,566.1
2023-03-26T05:44:32.058Z,565.9
2023-03-26T05:45:33.912Z,566
2023-03-26T05:46:36.052Z,566
2023-03-26T05:47:38.278Z,565.8
2023-03-26T05:48:40.289Z,565.6
2023-03-26T05:49:42.232Z,565.5
2023-03-26T05:50:44.082Z,565.3
2023-03-26T05:51:45.932Z,565.3
2023-03-26T05:52:47.674Z,565
2023-03-26T05:53:49.640Z,565.1
2023-03-26T05:54:51.482Z,564.7
2023-03-26T05:55:53.236Z,564.3
2023-03-26T05:56:55.300Z,564.6
2023-03-26T05:57:57.243Z,564.1
2023-03-26T05:58:59.114Z,564.3
2023-03-26T06:00:01.036Z,564.1
2023-03-26T06:01:02.899Z,564.2
2023-03-26T06:02:04.748Z,564.7
2023-03-26T06:03:07.388Z,564.8
2023-03-26T06:04:09.742Z,565.1
2023-03-26T06:05:11.721Z,564.9
2023-03-26T06:06:13.580Z,565.3
2023-03-26T06:07:15.532Z,565.6
2023-03-26T06:08:17.407Z,566
2023-03-26T06:09:19.121Z,565.8
2023-03-26T06:10:21.057Z,565.6
2023-03-26T06:11:22.931Z,565.5
2023-03-26T06:12:25.169Z,565.7
2023-03-26T06:13:27.392Z,565.5
2023-03-26T06:14:29.221Z,565.6
2023-03-26T06:15:31.170Z,565.2
2023-03-26T06:16:33.363Z,565.1
2023-03-26T06:17:35.380Z,565.2
2023-03-26T06:18:37.315Z,565.4
2023-03-26T06:19:39.167Z,565.9
2023-03-26T06:20:41.115Z,566.1
2023-03-26T06:21:42.922Z,565.7
2023-03-26T06:22:44.815Z,565.8
2023-03-26T06:23:46.663Z,565.3
2023-03-26T06:24:48.509Z,565.3
2023-03-26T06:25:50.373Z,565.4
2023-03-26T06:26:52.243Z,565.3
2023-03-26T06:27:54.169Z,565
2023-03-26T06:28:55.951Z,565.4
2023-03-26T06:29:57.893Z,565.4
2023-03-26T06:30:59.826Z,565
2023-03-26T06:32:21.068Z,565.2
2023-03-26T06:33:25.241Z,565.1
2023-03-26T06:34:27.190Z,564.7
2023-03-26T06:35:29.026Z,564.9
2023-03-26T06:36:30.886Z,565.3
2023-03-26T06:37:32.782Z,565.3
2023-03-26T06:38:34.579Z,565.2
2023-03-26T06:39:36.451Z,565.2
2023-03-26T06:40:38.289Z,565.1
2023-03-26T06:41:40.137Z,565.2
2023-03-26T06:43:11.482Z,565.1
2023-03-26T06:44:13.301Z,564.7
2023-03-26T06:45:15.212Z,564.9
2023-03-26T06:46:17.337Z,565.2
2023-03-26T06:47:19.289Z,565.1
2023-03-26T06:48:21.241Z,564.7
2023-03-26T06:49:23.094Z,564.4
2023-03-26T06:50:25.393Z,564.4
2023-03-26T06:51:27.218Z,564.2
2023-03-26T06:52:29.357Z,564.1
2023-03-26T06:53:31.290Z,564.1
2023-03-26T06:54:33.256Z,563.9
2023-03-26T06:55:35.115Z,563.7
2023-03-26T06:56:36.987Z,564
2023-03-26T06:57:38.891Z,563.5
2023-03-26T06:58:40.877Z,563.2
2023-03-26T06:59:42.718Z,563.2
2023-03-26T07:00:44.843Z,563.4
2023-03-26T07:01:47.452Z,563
2023-03-26T07:02:49.405Z,563.1
2023-03-26T07:03:51.572Z,562.8
2023-03-26T07:04:53.417Z,563
2023-03-26T07:05:55.247Z,563.1
2023-03-26T07:06:57.105Z,562.8
2023-03-26T07:07:58.944Z,562.9
2023-03-26T07:09:00.805Z,562.9
2023-03-26T07:10:02.607Z,562.3
2023-03-26T07:11:04.482Z,562.5
2023-03-26T07:12:06.462Z,562.5
2023-03-26T07:13:08.311Z,562.3
2023-03-26T07:14:10.159Z,562.7
2023-03-26T07:15:12.009Z,562.9
2023-03-26T07:16:13.997Z,563.1
2023-03-26T07:17:15.814Z,563
2023-03-26T07:18:17.672Z,562.9
2023-03-26T07:19:19.514Z,562.8
2023-03-26T07:20:21.472Z,562.9
2023-03-26T07:21:23.311Z,563.2
2023-03-26T07:22:25.168Z,563.4
2023-03-26T07:23:27.112Z,563.7
2023-03-26T07:24:29.263Z,563.7
2023-03-26T07:25:31.430Z,563.9
2023-03-26T07:26:33.272Z,564.2
2023-03-26T07:27:35.149Z,564
2023-03-26T07:28:37.182Z,563.8
2023-03-26T07:29:39.347Z,563.8
2023-03-26T07:30:41.184Z,563.7
2023-03-26T07:31:43.394Z,563.6
2023-03-26T07:32:45.349Z,563.7
2023-03-26T07:33:47.257Z,563.9
2023-03-26T07:34:49.096Z,564.4
2023-03-26T07:35:51.195Z,564.4
2023-03-26T07:36:53.044Z,564.9
2023-03-26T07:37:54.856Z,565.1
2023-03-26T07:38:56.703Z,564.6
2023-03-26T07:39:58.565Z,564.6
2023-03-26T07:41:00.521Z,564.8
2023-03-26T07:42:02.368Z,564.8
2023-03-26T07:43:04.216Z,564.6
2023-03-26T07:44:08.829Z,564.2
2023-03-26T07:45:10.564Z,564.6
2023-03-26T07:46:12.554Z,564.7
2023-03-26T07:47:14.391Z,564.8
2023-03-26T07:48:16.524Z,565
2023-03-26T07:49:18.307Z,564.8
2023-03-26T07:50:20.584Z,564.7
2023-03-26T07:51:22.400Z,564.8
2023-03-26T07:52:24.237Z,564.4
2023-03-26T07:53:26.084Z,564.4
2023-03-26T07:54:27.942Z,564.3
2023-03-26T07:55:29.708Z,564.2
2023-03-26T07:56:31.893Z,564.4
2023-03-26T07:57:33.906Z,564.5
2023-03-26T07:58:35.751Z,564.3
2023-03-26T07:59:37.600Z,564.3
2023-03-26T08:00:39.439Z,564.3
2023-03-26T08:01:41.726Z,564.1
2023-03-26T08:02:44.060Z,564.2
2023-03-26T08:03:46.489Z,564.1
2023-03-26T08:04:49.302Z,564.4
2023-03-26T08:05:51.259Z,564.6
2023-03-26T08:06:53.113Z,564.9
2023-03-26T08:07:54.953Z,564.8
2023-03-26T08:08:56.922Z,564.7
2023-03-26T08:09:58.859Z,565
2023-03-26T08:11:00.634Z,565.1
2023-03-26T08:12:02.460Z,564.6
2023-03-26T08:13:04.507Z,564.7
2023-03-26T08:14:06.358Z,564.9
2023-03-26T08:15:08.310Z,564.9
2023-03-26T08:16:10.297Z,565.1
2023-03-26T08:17:12.222Z,565.2
2023-03-26T08:18:14.098Z,565.2
2023-03-26T08:19:15.920Z,564.8
2023-03-26T08:20:17.777Z,564.9
2023-03-26T08:21:19.547Z,565.1
2023-03-26T08:22:21.475Z,564.8
2023-03-26T08:23:23.419Z,564.6
2023-03-26T08:24:25.371Z,564.5
2023-03-26T08:25:27.235Z,564.8
2023-03-26T08:26:29.075Z,564.7
2023-03-26T08:27:30.925Z,565.1
2023-03-26T08:28:32.774Z,565
2023-03-26T08:29:34.618Z,565.2
2023-03-26T08:30:36.479Z,564.9
2023-03-26T08:31:38.954Z,565.4
2023-03-26T08:32:41.115Z,565.1
2023-03-26T08:33:43.172Z,564.9
2023-03-26T08:34:45.054Z,564.7
2023-03-26T08:35:47.232Z,564.7
2023-03-26T08:36:49.221Z,564.6
2023-03-26T08:37:51.057Z,564.9
2023-03-26T08:38:53.595Z,564.7
2023-03-26T08:39:55.591Z,565.1
2023-03-26T08:40:58.257Z,565.2
2023-03-26T08:42:00.110Z,565
2023-03-26T08:43:01.948Z,564.8
2023-03-26T08:44:03.699Z,564.7
2023-03-26T08:45:05.545Z,565.1
2023-03-26T08:46:07.616Z,565
2023-03-26T08:47:09.458Z,565.2
2023-03-26T08:48:11.230Z,565.1
2023-03-26T08:49:13.087Z,565.5
2023-03-26T08:50:14.914Z,565.2
2023-03-26T08:51:16.952Z,565.1
2023-03-26T08:52:18.912Z,565
2023-03-26T08:53:21.074Z,564.9
2023-03-26T08:54:22.922Z,565.2
2023-03-26T08:55:24.778Z,565.2
2023-03-26T08:56:26.633Z,565
2023-03-26T08:57:28.575Z,565.4
2023-03-26T08:58:30.421Z,565.3
2023-03-26T08:59:32.277Z,565.4
2023-03-26T09:00:34.230Z,565.2
2023-03-26T09:01:36.321Z,565.6
2023-03-26T09:02:38.445Z,565.3
2023-03-26T09:03:40.323Z,565.2
2023-03-26T09:04:42.365Z,565.3
2023-03-26T09:05:44.192Z,565.5
2023-03-26T09:06:45.942Z,565.5
2023-03-26T09:07:47.787Z,565.6
2023-03-26T09:08:55.261Z,565.5
2023-03-26T09:09:57.152Z,565.7
2023-03-26T09:10:59.067Z,565.5
2023-03-26T09:12:00.918Z,565.6
2023-03-26T09:13:02.784Z,564.9
2023-03-26T09:14:04.628Z,564.9
2023-03-26T09:15:06.469Z,565.2
2023-03-26T09:16:08.574Z,564.9
2023-03-26T09:17:10.480Z,564.9
2023-03-26T09:18:12.578Z,565.4
2023-03-26T09:19:14.500Z,565.4
2023-03-26T09:20:16.474Z,565.2
2023-03-26T09:21:18.493Z,565.7
2023-03-26T09:22:20.348Z,565.4
2023-03-26T09:23:22.198Z,565.6
2023-03-26T09:24:24.053Z,566
2023-03-26T09:25:25.995Z,565.8
2023-03-26T09:26:27.868Z,566
2023-03-26T09:27:29.693Z,565.9
2023-03-26T09:28:31.546Z,566.1
2023-03-26T09:29:33.914Z,566.1
2023-03-26T09:30:35.756Z,566.5
2023-03-26T09:31:37.994Z,566.2
2023-03-26T09:32:40.112Z,566.6
2023-03-26T09:33:41.933Z,566.6
2023-03-26T09:34:43.991Z,566.8
2023-03-26T09:35:46.108Z,567.1
2023-03-26T09:36:47.985Z,567.2
2023-03-26T09:37:59.160Z,566.7
2023-03-26T09:39:01.007Z,566.9
2023-03-26T09:40:02.958Z,567.3
2023-03-26T09:41:04.808Z,567.2
2023-03-26T09:42:06.662Z,567.1
2023-03-26T09:43:08.618Z,566.9
2023-03-26T09:44:10.472Z,566.9
2023-03-26T09:45:12.354Z,567.3
2023-03-26T09:46:14.474Z,567.1
2023-03-26T09:47:16.421Z,567.4
2023-03-26T09:48:18.280Z,567.6
2023-03-26T09:49:20.670Z,567.3
2023-03-26T09:50:23.283Z,567.6
2023-03-26T09:51:28.248Z,567.9
2023-03-26T09:52:30.080Z,567.8
2023-03-26T09:53:31.842Z,567.6
2023-03-26T09:54:33.669Z,568.4
2023-03-26T09:55:35.525Z,568.3
2023-03-26T09:56:40.389Z,568.2
2023-03-26T09:57:42.520Z,568
2023-03-26T09:58:44.353Z,568.3
2023-03-26T09:59:46.299Z,568.6
2023-03-26T10:00:48.354Z,568.7
2023-03-26T10:01:50.213Z,568.9
2023-03-26T10:02:52.178Z,568.7
2023-03-26T10:03:54.210Z,568.8
2023-03-26T10:04:56.723Z,569.3
2023-03-26T10:05:58.538Z,569.1
2023-03-26T10:07:00.615Z,569.5
2023-03-26T10:08:02.612Z,569.9
2023-03-26T10:09:04.499Z,570
2023-03-26T10:10:06.350Z,570.1
2023-03-26T10:11:08.210Z,569.6
2023-03-26T10:12:10.151Z,569.9
2023-03-26T10:13:15.682Z,570.4
2023-03-26T10:14:17.531Z,570.5
2023-03-26T10:15:19.396Z,570.5
2023-03-26T10:16:21.557Z,570.9
2023-03-26T10:17:23.628Z,570.8
2023-03-26T10:18:30.584Z,571.1
2023-03-26T10:19:32.412Z,571.3
2023-03-26T10:20:34.374Z,571
2023-03-26T10:21:36.219Z,572.2
2023-03-26T10:22:38.229Z,572.2
2023-03-26T10:23:40.117Z,571.7
2023-03-26T10:24:41.917Z,571.9
2023-03-26T10:25:43.714Z,572
2023-03-26T10:27:11.473Z,572.6
2023-03-26T10:28:13.427Z,572.7
2023-03-26T10:29:15.278Z,573
2023-03-26T10:30:17.128Z,573
2023-03-26T10:31:19.197Z,573.4
2023-03-26T10:32:21.136Z,573.5
2023-03-26T10:33:25.641Z,573.7
2023-03-26T10:34:30.264Z,573.9
2023-03-26T10:35:32.408Z,574.7
2023-03-26T10:36:34.272Z,574.9
2023-03-26T10:37:36.112Z,574.5
2023-03-26T10:38:38.201Z,574.9
2023-03-26T10:39:44.014Z,574.8
2023-03-26T10:40:45.858Z,574.7
2023-03-26T10:41:47.730Z,574.6
2023-03-26T10:42:49.611Z,575.1
2023-03-26T10:44:09.544Z,575.5
2023-03-26T10:45:11.398Z,575.4
2023-03-26T10:46:13.487Z,575.3
2023-03-26T10:47:15.298Z,575.5
2023-03-26T10:48:17.148Z,575.5
2023-03-26T10:49:19.108Z,575.9
2023-03-26T10:50:24.447Z,575.8
2023-03-26T10:51:26.183Z,575.7
2023-03-26T10:52:28.033Z,575.7
2023-03-26T10:53:29.880Z,575.8
2023-03-26T10:54:31.959Z,575.8
2023-03-26T10:55:33.655Z,576.3
2023-03-26T10:56:35.844Z,576.3
2023-03-26T10:57:37.618Z,576.6
2023-03-26T10:58:51.002Z,576.6
2023-03-26T10:59:52.972Z,576.7
2023-03-26T11:00:55.477Z,576.5
2023-03-26T11:01:57.725Z,576.6
2023-03-26T11:02:59.737Z,576.6
2023-03-26T11:04:01.700Z,577.1
2023-03-26T11:05:03.769Z,577.5
2023-03-26T11:06:05.526Z,576.7
2023-03-26T11:07:09.499Z,576.9
2023-03-26T11:08:11.280Z,577
2023-03-26T11:09:13.102Z,577
2023-03-26T11:10:15.084Z,577.5
2023-03-26T11:11:16.801Z,577.3
2023-03-26T11:12:29.093Z,577.1
2023-03-26T11:13:30.942Z,577.3
2023-03-26T11:14:36.061Z,577.6
2023-03-26T11:15:38.235Z,577.4
2023-03-26T11:16:40.156Z,577.5
2023-03-26T11:17:42.656Z,578
2023-03-26T11:18:44.511Z,577.7
2023-03-26T11:19:46.452Z,577.8
2023-03-26T11:20:48.292Z,577.5
2023-03-26T11:21:50.146Z,577.5
2023-03-26T11:22:52.010Z,578
2023-03-26T11:24:06.893Z,578.3
2023-03-26T11:25:08.814Z,578.6
2023-03-26T11:26:10.702Z,578.8
2023-03-26T11:27:23.212Z,578.8
2023-03-26T11:28:26.844Z,579.1
2023-03-26T11:34:37.532Z,579.5
2023-03-26T11:35:42.444Z,579.5
2023-03-26T11:36:44.343Z,579.6
2023-03-26T11:37:46.183Z,579.4
2023-03-26T11:38:48.104Z,579.7
2023-03-26T11:39:49.905Z,579.5
2023-03-26T11:40:51.818Z,579.6
2023-03-26T11:41:53.853Z,579.8
2023-03-26T11:42:55.712Z,579.3
2023-03-26T11:43:57.677Z,579.4
2023-03-26T11:44:59.515Z,579.6
2023-03-26T11:46:01.498Z,579.5
2023-03-26T11:47:03.420Z,579.9
2023-03-26T11:48:05.395Z,580
2023-03-26T11:49:07.336Z,580.4
2023-03-26T11:50:09.123Z,581
2023-03-26T11:51:11.025Z,581.4
2023-03-26T11:52:12.991Z,581.4
2023-03-26T11:53:14.838Z,581.7
2023-03-26T11:54:16.680Z,582.3
2023-03-26T11:55:18.655Z,582.1
2023-03-26T11:56:20.679Z,582.3
2023-03-26T11:57:22.701Z,582.3
2023-03-26T11:58:24.489Z,582.8
2023-03-26T11:59:26.340Z,583.9
2023-03-26T12:00:28.403Z,584
2023-03-26T12:01:30.264Z,584.5
2023-03-26T12:02:32.952Z,584.7
2023-03-26T12:03:34.960Z,584.9
2023-03-26T12:04:36.829Z,584.9
2023-03-26T12:05:38.779Z,584.9
2023-03-26T12:06:40.734Z,585
2023-03-26T12:07:42.672Z,585.2
2023-03-26T12:08:44.524Z,585.5
2023-03-26T12:09:46.376Z,585.5
2023-03-26T12:10:48.227Z,585.6
2023-03-26T12:11:50.079Z,585.6
2023-03-26T12:12:52.060Z,585.6
2023-03-26T12:13:53.876Z,585.4
2023-03-26T12:14:55.731Z,585.7
2023-03-26T12:15:57.801Z,585.8
2023-03-26T12:16:59.966Z,586.1
2023-03-26T12:18:02.031Z,586
2023-03-26T12:19:03.948Z,586.5
2023-03-26T12:20:05.915Z,585.9
2023-03-26T12:21:09.794Z,586.2
2023-03-26T12:22:11.750Z,586.4
2023-03-26T12:23:13.596Z,586.6
2023-03-26T12:24:15.402Z,586.7
2023-03-26T12:25:17.307Z,587.1
2023-03-26T12:26:19.138Z,587.4
2023-03-26T12:27:20.991Z,587.8
2023-03-26T12:28:23.075Z,587.7
2023-03-26T12:29:25.013Z,587.7
2023-03-26T12:30:26.810Z,588
2023-03-26T12:31:28.889Z,588.4
2023-03-26T12:32:47.574Z,588
2023-03-26T12:33:49.409Z,588.3
2023-03-26T12:34:51.376Z,588.3
2023-03-26T12:35:53.235Z,588.3
2023-03-26T12:36:55.279Z,588.7
2023-03-26T12:37:57.110Z,588.8
2023-03-26T12:40:21.738Z,589.3
2023-03-26T12:45:00.431Z,589.9
2023-03-26T12:48:04.911Z,590.5
2023-03-26T12:49:07.396Z,591
2023-03-26T12:50:09.596Z,590.9
2023-03-26T12:51:11.445Z,591.6
2023-03-26T12:52:13.301Z,591.6
2023-03-26T12:53:15.230Z,591.5
2023-03-26T12:54:17.093Z,592
2023-03-26T12:55:18.862Z,591.6
2023-03-26T12:56:20.776Z,591.3
2023-03-26T12:57:23.022Z,591.1
2023-03-26T12:58:24.820Z,591.6
2023-03-26T12:59:26.632Z,591.5
2023-03-26T13:00:28.509Z,591.7
2023-03-26T13:01:30.590Z,592.1
2023-03-26T13:02:33.069Z,592
2023-03-26T13:03:35.181Z,592.4
2023-03-26T13:04:37.021Z,593
2023-03-26T13:05:38.866Z,592.7
2023-03-26T13:07:03.045Z,593
2023-03-26T13:08:05.003Z,592.2
2023-03-26T13:09:06.863Z,592.4
2023-03-26T13:10:08.696Z,592.2
2023-03-26T13:11:10.553Z,592.7
2023-03-26T13:12:12.358Z,592.7
2023-03-26T13:13:14.352Z,592.7
2023-03-26T13:14:16.199Z,592.1
2023-03-26T13:15:18.146Z,592.8
2023-03-26T13:16:20.368Z,592.8
2023-03-26T13:17:22.487Z,592.8
2023-03-26T13:18:24.516Z,593
2023-03-26T13:19:26.364Z,593.5
2023-03-26T13:20:28.214Z,593.5
2023-03-26T13:21:30.084Z,593.7
2023-03-26T13:22:32.026Z,593.8
2023-03-26T13:23:33.807Z,594.1
2023-03-26T13:24:35.631Z,593.2
2023-03-26T13:25:37.481Z,593.6
2023-03-26T13:26:39.256Z,593.5
2023-03-26T13:27:41.176Z,593.7
2023-03-26T13:28:43.020Z,593.8
2023-03-26T13:29:44.877Z,593.6
2023-03-26T13:30:46.729Z,593.9
2023-03-26T13:31:48.600Z,593.6
2023-03-26T13:32:50.662Z,593.4
2023-03-26T13:33:52.593Z,593.4
2023-03-26T13:34:54.424Z,593.6
2023-03-26T13:36:25.229Z,594
2023-03-26T13:37:27.114Z,594.1
2023-03-26T13:38:29.068Z,594.2
2023-03-26T13:39:30.924Z,594.5
2023-03-26T13:40:32.775Z,594.3